Time;durP1;ratioP1;P1;durP2;ratioP2;P2;SDS_P1;SDS_P2;PMS_P1;PMS_P2;Temp;Humidity;BMP_temperature;BMP_pressure;BME280_temperature;BME280_humidity;BME280_pressure;Samples;Min_cycle;Max_cycle;Signal;HPM_P1;HPM_P2
2021/07/07 00:00:46;;;;;;;;;;;;;;;27.25;41.15;99332.41;5112582;28;19915;-38
2021/07/07 00:03:11;;;;;;;;;;;;;;;26.92;42.10;99336.44;5112279;28;19916;-38
2021/07/07 00:05:36;;;;;;;;;;;;;;;26.95;41.59;99334.19;5112428;28;19912;-38
2021/07/07 00:08:02;;;;;;;;;;;;;;;26.97;41.62;99340.13;5112304;28;19935;-39
2021/07/07 00:10:32;;;;;;;;;;;;;;;27.25;41.15;99340.59;5112654;28;20038;-38
2021/07/07 00:12:59;;;;;;;;;;;;;;;27.49;40.51;99335.41;5112622;28;19961;-37
2021/07/07 00:15:25;;;;;;;;;;;;;;;27.02;41.52;99331.78;5112566;28;19912;-37
2021/07/07 00:17:50;;;;;;;;;;;;;;;26.89;41.33;99337.06;5112369;28;20363;-37
2021/07/07 00:20:18;;;;;;;;;;;;;;;26.91;41.69;99332.09;5112033;28;19927;-38
2021/07/07 00:22:43;;;;;;;;;;;;;;;26.91;41.18;99339.47;5111462;28;20388;-38
2021/07/07 00:25:09;;;;;;;;;;;;;;;27.16;40.55;99324.19;5112012;28;20002;-38
2021/07/07 00:27:34;;;;;;;;;;;;;;;26.96;41.23;99338.50;5112091;28;20191;-38
2021/07/07 00:29:59;;;;;;;;;;;;;;;26.74;41.92;99329.38;5112064;28;19952;-38
2021/07/07 00:32:25;;;;;;;;;;;;;;;26.72;42.11;99337.88;5111779;28;19912;-38
2021/07/07 00:34:50;;;;;;;;;;;;;;;26.82;41.37;99342.19;5111731;28;19977;-38
2021/07/07 00:37:15;;;;;;;;;;;;;;;27.12;40.75;99339.63;5111589;28;19919;-36
2021/07/07 00:39:41;;;;;;;;;;;;;;;27.62;39.54;99340.97;5111781;28;19994;-37
2021/07/07 00:42:06;;;;;;;;;;;;;;;27.00;40.77;99343.00;5111820;28;19912;-38
2021/07/07 00:44:32;;;;;;;;;;;;;;;26.83;41.19;99351.22;5111626;28;20019;-38
2021/07/07 00:46:57;;;;;;;;;;;;;;;26.74;41.14;99345.75;5111723;28;19915;-37
2021/07/07 00:49:22;;;;;;;;;;;;;;;26.80;40.81;99344.44;5111572;28;20006;-38
2021/07/07 00:51:47;;;;;;;;;;;;;;;27.35;39.90;99350.38;5111551;28;19961;-38
2021/07/07 00:54:16;;;;;;;;;;;;;;;27.42;39.38;99350.69;5111479;28;19966;-38
2021/07/07 00:56:42;;;;;;;;;;;;;;;26.59;40.91;99344.28;5093234;28;19912;-37
2021/07/07 00:59:07;;;;;;;;;;;;;;;26.59;41.08;99341.56;5111007;28;19915;-38
2021/07/07 01:01:32;;;;;;;;;;;;;;;26.81;40.62;99348.81;5111123;28;19912;-38
2021/07/07 01:03:58;;;;;;;;;;;;;;;26.99;39.98;99349.59;5092792;28;20006;-38
2021/07/07 01:06:23;;;;;;;;;;;;;;;27.40;39.28;99353.72;5111347;28;19947;-37
2021/07/07 01:08:48;;;;;;;;;;;;;;;27.17;39.66;99350.38;5111414;28;19915;-38
2021/07/07 01:11:13;;;;;;;;;;;;;;;26.69;40.72;99359.53;5111648;28;20021;-38
2021/07/07 01:13:39;;;;;;;;;;;;;;;26.56;41.04;99355.00;5111349;28;19950;-38
2021/07/07 01:16:05;;;;;;;;;;;;;;;26.71;40.90;99357.28;5111183;28;20391;-37
2021/07/07 01:18:30;;;;;;;;;;;;;;;26.77;40.50;99356.03;5110970;28;19927;-37
2021/07/07 01:20:55;;;;;;;;;;;;;;;27.66;38.70;99369.25;5111203;28;19920;-38
2021/07/07 01:23:20;;;;;;;;;;;;;;;26.76;40.91;99359.88;5111494;28;19918;-37
2021/07/07 01:25:46;;;;;;;;;;;;;;;26.68;41.14;99368.88;5110939;28;19919;-38
2021/07/07 01:28:11;;;;;;;;;;;;;;;26.65;41.10;99362.09;5111133;28;20002;-38
2021/07/07 01:30:36;;;;;;;;;;;;;;;26.65;41.07;99362.09;5111097;28;19922;-37
2021/07/07 01:33:02;;;;;;;;;;;;;;;26.65;40.74;99366.75;5111015;28;20376;-38
2021/07/07 01:35:27;;;;;;;;;;;;;;;27.08;40.09;99360.50;5113851;28;19915;-37
2021/07/07 01:37:54;;;;;;;;;;;;;;;26.47;41.47;99363.19;5115607;28;19922;-37
2021/07/07 01:40:20;;;;;;;;;;;;;;;26.33;41.74;99358.69;5115842;28;20109;-37
2021/07/07 01:42:45;;;;;;;;;;;;;;;26.41;41.04;99356.28;5115250;28;20372;-37
2021/07/07 01:45:10;;;;;;;;;;;;;;;26.51;41.11;99355.97;5115218;28;19919;-36
2021/07/07 01:47:36;;;;;;;;;;;;;;;26.64;40.86;99359.72;5115194;28;19912;-37
2021/07/07 01:50:02;;;;;;;;;;;;;;;26.74;40.30;99362.13;5115459;28;20368;-38
2021/07/07 01:52:27;;;;;;;;;;;;;;;26.33;41.51;99360.56;5115179;28;20307;-37
2021/07/07 01:54:52;;;;;;;;;;;;;;;26.31;41.34;99360.91;5115221;28;19912;-36
2021/07/07 01:57:17;;;;;;;;;;;;;;;26.16;41.42;99344.19;5115300;28;20407;-38
2021/07/07 01:59:43;;;;;;;;;;;;;;;26.25;41.77;99372.28;5115352;28;20368;-38
2021/07/07 02:02:08;;;;;;;;;;;;;;;26.62;40.87;99384.59;5114890;28;19912;-37
2021/07/07 02:04:33;;;;;;;;;;;;;;;26.81;40.24;99383.50;5114677;28;19926;-37
2021/07/07 02:06:59;;;;;;;;;;;;;;;26.16;41.83;99388.63;5114694;28;19911;-37
2021/07/07 02:09:24;;;;;;;;;;;;;;;26.04;42.64;99393.88;5114967;28;20359;-38
2021/07/07 02:11:49;;;;;;;;;;;;;;;25.94;42.61;99392.22;5114689;28;19959;-38
2021/07/07 02:14:15;;;;;;;;;;;;;;;26.06;42.11;99395.16;5114658;28;19922;-36
2021/07/07 02:16:40;;;;;;;;;;;;;;;26.56;40.95;99391.28;5114913;28;20245;-38
2021/07/07 02:19:05;;;;;;;;;;;;;;;26.62;40.15;99372.88;5114443;28;19959;-38
2021/07/07 02:21:31;;;;;;;;;;;;;;;26.23;41.43;99390.88;5114609;28;20033;-39
2021/07/07 02:23:57;;;;;;;;;;;;;;;26.06;42.24;99394.34;5114188;28;19912;-38
2021/07/07 02:26:22;;;;;;;;;;;;;;;26.04;42.81;99391.94;5114474;28;19916;-38
2021/07/07 02:28:48;;;;;;;;;;;;;;;25.85;44.13;99404.97;5114425;28;19911;-37
2021/07/07 02:31:13;;;;;;;;;;;;;;;25.90;44.47;99405.66;5095763;28;19966;-38
2021/07/07 02:33:38;;;;;;;;;;;;;;;26.10;44.35;99403.50;5114168;28;19929;-36
2021/07/07 02:36:04;;;;;;;;;;;;;;;25.40;46.60;99405.84;5114229;28;20113;-36
2021/07/07 02:38:29;;;;;;;;;;;;;;;25.07;47.42;99406.06;5114127;28;19915;-38
2021/07/07 02:40:55;;;;;;;;;;;;;;;24.73;48.72;99412.00;5113989;28;19965;-37
2021/07/07 02:43:20;;;;;;;;;;;;;;;24.61;49.14;99422.59;5114131;28;19918;-38
2021/07/07 02:45:46;;;;;;;;;;;;;;;23.98;50.63;99419.47;5113097;28;19919;-38
2021/07/07 02:48:12;;;;;;;;;;;;;;;23.90;51.14;99415.53;5113816;28;19920;-37
2021/07/07 02:50:37;;;;;;;;;;;;;;;24.09;50.84;99420.88;5114287;28;19912;-38
2021/07/07 02:53:03;;;;;;;;;;;;;;;24.23;50.84;99420.88;5113925;28;20375;-38
2021/07/07 02:55:28;;;;;;;;;;;;;;;23.84;51.65;99424.88;5113681;28;20006;-38
2021/07/07 02:57:57;;;;;;;;;;;;;;;23.79;51.90;99436.63;5113802;28;19923;-38
2021/07/07 03:00:23;;;;;;;;;;;;;;;24.53;49.85;99429.56;5113583;28;20401;-38
2021/07/07 03:02:48;;;;;;;;;;;;;;;24.16;50.87;99432.16;5113437;28;19919;-37
2021/07/07 03:05:14;;;;;;;;;;;;;;;24.15;50.50;99424.31;5113551;28;19912;-38
2021/07/07 03:07:39;;;;;;;;;;;;;;;24.05;51.18;99425.31;5113538;28;20383;-38
2021/07/07 03:10:05;;;;;;;;;;;;;;;24.01;51.33;99432.47;5113892;28;19912;-38
2021/07/07 03:12:30;;;;;;;;;;;;;;;24.10;50.85;99427.91;5113461;28;20296;-38
2021/07/07 03:14:55;;;;;;;;;;;;;;;24.65;49.83;99431.75;5113704;28;19947;-37
2021/07/07 03:17:21;;;;;;;;;;;;;;;23.76;52.48;99441.81;5113431;28;20315;-38
2021/07/07 03:19:46;;;;;;;;;;;;;;;23.87;52.00;99447.94;5113318;28;20006;-38
2021/07/07 03:22:11;;;;;;;;;;;;;;;24.00;52.01;99431.63;5113396;28;19918;-37
2021/07/07 03:24:36;;;;;;;;;;;;;;;24.20;50.60;99445.97;5113087;28;19912;-38
2021/07/07 03:27:02;;;;;;;;;;;;;;;24.68;50.11;99442.84;5113149;28;19912;-38
2021/07/07 03:29:27;;;;;;;;;;;;;;;24.32;51.03;99450.91;5113091;28;19912;-37
2021/07/07 03:31:52;;;;;;;;;;;;;;;23.49;53.68;99448.78;5113163;28;20039;-36
2021/07/07 03:34:18;;;;;;;;;;;;;;;23.48;54.14;99463.47;5112984;28;19912;-37
2021/07/07 03:36:43;;;;;;;;;;;;;;;23.67;53.20;99459.94;5112644;28;20369;-38
2021/07/07 03:39:08;;;;;;;;;;;;;;;24.09;51.60;99450.78;5113440;28;19916;-38
2021/07/07 03:41:33;;;;;;;;;;;;;;;24.22;51.43;99456.50;5113149;28;20548;-37
2021/07/07 03:43:59;;;;;;;;;;;;;;;24.47;50.50;99453.31;5113037;28;19915;-36
2021/07/07 03:46:24;;;;;;;;;;;;;;;23.91;52.41;99463.34;5112835;28;20002;-38
2021/07/07 03:48:49;;;;;;;;;;;;;;;23.95;53.04;99474.41;5112979;28;20021;-37
2021/07/07 03:51:14;;;;;;;;;;;;;;;24.11;52.20;99466.78;5113016;28;20414;-37
2021/07/07 03:53:40;;;;;;;;;;;;;;;24.28;50.75;99461.56;5112895;28;19918;-37
2021/07/07 03:56:05;;;;;;;;;;;;;;;24.66;49.60;99464.09;5112550;28;20244;-37
2021/07/07 03:58:30;;;;;;;;;;;;;;;24.62;50.43;99470.44;5112346;28;20390;-38
2021/07/07 04:00:56;;;;;;;;;;;;;;;24.27;51.03;99464.59;5095312;28;19916;-38
2021/07/07 04:03:21;;;;;;;;;;;;;;;24.30;51.77;99464.00;5092502;28;19912;-38
2021/07/07 04:05:46;;;;;;;;;;;;;;;24.38;51.93;99464.06;5092517;28;19912;-38
2021/07/07 04:08:11;;;;;;;;;;;;;;;24.45;51.89;99460.97;5097946;28;20278;-38
2021/07/07 04:10:37;;;;;;;;;;;;;;;24.64;51.73;99466.31;5112872;28;19922;-38
2021/07/07 04:13:02;;;;;;;;;;;;;;;25.34;49.36;99467.81;5112641;28;19912;-38
2021/07/07 04:15:27;;;;;;;;;;;;;;;25.05;49.97;99468.16;5112750;28;19920;-39
2021/07/07 04:17:52;;;;;;;;;;;;;;;24.78;51.19;99472.53;5113016;28;20393;-38
2021/07/07 04:20:18;;;;;;;;;;;;;;;24.87;50.68;99469.91;5112207;28;20007;-36
2021/07/07 04:22:43;;;;;;;;;;;;;;;24.86;50.28;99476.47;5112604;28;19912;-39
2021/07/07 04:25:09;;;;;;;;;;;;;;;25.35;48.92;99471.34;5092308;28;20398;-37
2021/07/07 04:27:36;;;;;;;;;;;;;;;26.00;46.68;99483.66;5092162;28;19912;-39
2021/07/07 04:30:03;;;;;;;;;;;;;;;25.54;48.81;99482.84;5091972;28;19942;-38
2021/07/07 04:32:28;;;;;;;;;;;;;;;25.55;49.08;99489.91;5091139;28;19912;-38
2021/07/07 04:34:54;;;;;;;;;;;;;;;25.98;47.87;99488.59;5072889;28;19916;-38
2021/07/07 04:37:19;;;;;;;;;;;;;;;26.29;47.41;99485.06;5090740;28;19987;-37
2021/07/07 04:39:45;;;;;;;;;;;;;;;27.43;44.29;99492.41;5090536;28;20404;-38
2021/07/07 04:42:10;;;;;;;;;;;;;;;27.06;44.46;99488.34;5090563;28;19912;-38
2021/07/07 04:44:35;;;;;;;;;;;;;;;26.89;45.07;99495.38;5090808;28;20060;-39
2021/07/07 04:47:01;;;;;;;;;;;;;;;26.88;45.21;99484.78;5091064;28;20469;-38
2021/07/07 04:49:26;;;;;;;;;;;;;;;27.21;45.44;99495.28;5091642;28;19916;-38
2021/07/07 04:51:51;;;;;;;;;;;;;;;27.47;43.87;99489.81;5091389;28;20022;-38
2021/07/07 04:54:17;;;;;;;;;;;;;;;28.72;41.10;99494.31;5091181;28;20007;-38
2021/07/07 04:56:44;;;;;;;;;;;;;;;28.35;42.09;99498.66;5091399;28;19912;-37
2021/07/07 04:59:09;;;;;;;;;;;;;;;28.70;41.87;99501.28;5090928;28;19916;-38
2021/07/07 05:01:37;;;;;;;;;;;;;;;28.97;39.90;99505.44;5090648;28;19965;-38
2021/07/07 05:04:02;;;;;;;;;;;;;;;29.13;40.05;99500.19;5090591;28;19915;-39
2021/07/07 05:06:28;;;;;;;;;;;;;;;29.82;38.71;99504.31;5090699;28;20257;-38
2021/07/07 05:08:54;;;;;;;;;;;;;;;30.36;38.33;99500.66;5090309;28;19919;-38
2021/07/07 05:11:19;;;;;;;;;;;;;;;30.56;38.42;99499.75;5090871;28;19991;-39
2021/07/07 05:13:44;;;;;;;;;;;;;;;30.45;37.92;99497.81;5090758;28;19966;-38
2021/07/07 05:16:11;;;;;;;;;;;;;;;30.92;37.07;99508.31;5090565;28;19930;-38
2021/07/07 05:18:36;;;;;;;;;;;;;;;31.18;35.92;99503.22;5090686;28;19931;-38
2021/07/07 05:21:01;;;;;;;;;;;;;;;32.10;34.49;99508.16;5103578;28;19919;-37
2021/07/07 05:23:27;;;;;;;;;;;;;;;31.51;35.37;99496.75;5110930;28;19911;-36
2021/07/07 05:25:52;;;;;;;;;;;;;;;31.02;36.58;99507.88;5110939;28;19919;-38
2021/07/07 05:28:17;;;;;;;;;;;;;;;30.90;36.43;99505.94;5110800;28;19911;-37
2021/07/07 05:30:43;;;;;;;;;;;;;;;30.71;37.03;99506.50;5110695;28;19942;-38
2021/07/07 05:33:09;;;;;;;;;;;;;;;32.30;34.93;99515.34;5111042;28;19912;-38
2021/07/07 05:35:35;;;;;;;;;;;;;;;32.61;34.08;99516.50;5111102;28;19930;-38
2021/07/07 05:38:00;;;;;;;;;;;;;;;32.38;33.81;99523.78;5110980;28;19916;-38
2021/07/07 05:40:26;;;;;;;;;;;;;;;31.83;34.58;99524.31;5110838;28;19977;-38
2021/07/07 05:42:54;;;;;;;;;;;;;;;31.45;35.20;99520.09;5110477;28;20410;-37
2021/07/07 05:45:20;;;;;;;;;;;;;;;32.61;33.61;99529.50;5110826;28;19919;-38
2021/07/07 05:47:46;;;;;;;;;;;;;;;32.43;33.62;99521.56;5111044;28;19915;-38
2021/07/07 05:50:11;;;;;;;;;;;;;;;31.58;34.89;99520.09;5110831;28;20313;-38
2021/07/07 05:52:36;;;;;;;;;;;;;;;32.01;34.24;99524.81;5110993;28;20002;-38
2021/07/07 05:55:01;;;;;;;;;;;;;;;32.82;33.58;99531.94;5110695;28;19912;-37
2021/07/07 05:57:39;;;;;;;;;;;;;;;33.85;30.88;99529.81;5111117;28;19981;-38
2021/07/07 06:00:05;;;;;;;;;;;;;;;33.56;31.54;99525.69;5111408;28;19912;-38
2021/07/07 06:02:30;;;;;;;;;;;;;;;32.92;32.30;99529.44;5110722;28;19912;-38
2021/07/07 06:04:56;;;;;;;;;;;;;;;33.24;32.60;99532.16;5110835;28;19912;-38
2021/07/07 06:07:21;;;;;;;;;;;;;;;34.22;31.16;99532.09;5110771;28;20397;-38
2021/07/07 06:09:46;;;;;;;;;;;;;;;34.50;30.35;99533.72;5110678;28;19922;-38
2021/07/07 06:12:12;;;;;;;;;;;;;;;34.01;30.79;99538.78;5110742;28;20276;-39
2021/07/07 06:14:37;;;;;;;;;;;;;;;34.32;31.19;99545.28;5110594;28;19918;-38
2021/07/07 06:17:02;;;;;;;;;;;;;;;34.93;30.22;99537.16;5110898;28;19915;-38
2021/07/07 06:19:27;;;;;;;;;;;;;;;35.63;28.98;99532.97;5110232;28;19924;-39
2021/07/07 06:21:53;;;;;;;;;;;;;;;35.65;28.85;99533.38;5113547;28;20253;-38
2021/07/07 06:24:18;;;;;;;;;;;;;;;35.45;29.01;99538.28;5114789;28;19911;-38
2021/07/07 06:26:43;;;;;;;;;;;;;;;35.47;29.24;99535.94;5114203;28;20402;-38
2021/07/07 06:29:10;;;;;;;;;;;;;;;36.70;27.64;99535.19;5114163;28;19918;-38
2021/07/07 06:31:35;;;;;;;;;;;;;;;36.66;27.42;99542.69;5114487;28;19918;-40
2021/07/07 06:34:01;;;;;;;;;;;;;;;36.68;27.17;99540.34;5114133;28;19912;-38
2021/07/07 06:36:26;;;;;;;;;;;;;;;36.74;27.34;99541.56;5114766;28;19912;-41
2021/07/07 06:38:51;;;;;;;;;;;;;;;37.68;25.73;99532.56;5114310;28;19923;-38
2021/07/07 06:41:16;;;;;;;;;;;;;;;37.93;25.01;99537.38;5113888;28;19919;-38
2021/07/07 06:43:42;;;;;;;;;;;;;;;37.48;25.43;99537.59;5114065;28;19961;-38
2021/07/07 06:46:07;;;;;;;;;;;;;;;37.06;25.50;99550.06;5114099;28;19919;-39
2021/07/07 06:48:32;;;;;;;;;;;;;;;37.61;25.16;99543.63;5113808;28;19994;-39
2021/07/07 06:50:58;;;;;;;;;;;;;;;37.43;25.09;99545.50;5113970;28;19920;-39
2021/07/07 06:53:25;;;;;;;;;;;;;;;37.38;25.47;99538.38;5113624;28;19912;-41
2021/07/07 06:55:50;;;;;;;;;;;;;;;37.51;24.70;99542.38;5113672;28;19918;-37
2021/07/07 06:58:15;;;;;;;;;;;;;;;37.51;25.37;99542.38;5113888;28;19923;-39
2021/07/07 07:00:41;;;;;;;;;;;;;;;38.34;24.13;99537.03;5114022;28;20288;-38
2021/07/07 07:03:06;;;;;;;;;;;;;;;37.78;24.83;99539.31;5113641;28;20407;-38
2021/07/07 07:05:33;;;;;;;;;;;;;;;37.92;24.69;99539.34;5095797;28;19919;-41
2021/07/07 07:07:58;;;;;;;;;;;;;;;37.84;24.87;99545.28;5113489;28;19919;-38
2021/07/07 07:10:24;;;;;;;;;;;;;;;38.63;24.13;99542.59;5113798;28;19941;-39
2021/07/07 07:12:49;;;;;;;;;;;;;;;38.53;24.32;99539.41;5113432;28;20367;-38
2021/07/07 07:15:14;;;;;;;;;;;;;;;38.25;24.62;99518.00;5113530;28;19996;-37
2021/07/07 07:17:40;;;;;;;;;;;;;;;38.14;24.83;99542.97;5094537;28;19920;-38
2021/07/07 07:20:06;;;;;;;;;;;;;;;38.67;24.68;99546.97;5108621;28;20121;-39
2021/07/07 07:22:31;;;;;;;;;;;;;;;39.07;23.99;99552.47;5092776;28;20303;-39
2021/07/07 07:24:57;;;;;;;;;;;;;;;38.57;24.40;99541.41;5092870;28;19919;-39
2021/07/07 07:27:22;;;;;;;;;;;;;;;38.66;23.97;99547.38;5092718;28;19999;-38
2021/07/07 07:29:47;;;;;;;;;;;;;;;38.83;24.64;99551.31;5092830;28;19999;-41
2021/07/07 07:32:12;;;;;;;;;;;;;;;39.05;23.72;99543.72;5091990;28;19912;-38
2021/07/07 07:34:38;;;;;;;;;;;;;;;38.84;23.84;99537.00;5092609;28;19913;-39
2021/07/07 07:37:04;;;;;;;;;;;;;;;38.77;23.75;99545.38;5092711;28;19912;-39
2021/07/07 07:39:39;;;;;;;;;;;;;;;38.75;24.00;99544.16;5092601;28;19916;-39
2021/07/07 07:42:04;;;;;;;;;;;;;;;39.55;23.23;99546.34;5092784;28;19913;-39
2021/07/07 07:44:30;;;;;;;;;;;;;;;39.62;22.08;99551.88;5092618;28;20011;-39
2021/07/07 07:46:56;;;;;;;;;;;;;;;39.29;22.96;99553.97;5074316;28;20131;-38
2021/07/07 07:49:21;;;;;;;;;;;;;;;39.63;22.17;99555.47;5092785;28;20302;-37
2021/07/07 07:51:46;;;;;;;;;;;;;;;39.45;22.62;99549.97;5092544;28;20397;-38
2021/07/07 07:54:12;;;;;;;;;;;;;;;39.72;23.02;99553.03;5092526;28;19912;-37
2021/07/07 07:56:37;;;;;;;;;;;;;;;38.84;22.70;99558.44;5092547;28;20334;-39
2021/07/07 07:59:02;;;;;;;;;;;;;;;39.15;22.33;99550.44;5092401;28;19916;-39
2021/07/07 08:01:28;;;;;;;;;;;;;;;39.39;22.07;99548.78;5091846;28;19965;-38
2021/07/07 08:03:53;;;;;;;;;;;;;;;39.67;21.36;99557.00;5092027;28;20383;-39
2021/07/07 08:06:18;;;;;;;;;;;;;;;39.52;21.23;99551.94;5091803;28;19912;-37
2021/07/07 08:08:43;;;;;;;;;;;;;;;39.43;21.83;99555.09;5092089;28;20004;-39
2021/07/07 08:11:09;;;;;;;;;;;;;;;39.32;22.03;99555.19;5091941;28;19912;-40
2021/07/07 08:13:34;;;;;;;;;;;;;;;39.75;21.61;99556.97;5092150;28;19912;-38
2021/07/07 08:16:00;;;;;;;;;;;;;;;40.02;21.57;99548.88;5092128;28;19920;-39
2021/07/07 08:18:25;;;;;;;;;;;;;;;40.48;19.93;99549.72;5091261;28;20049;-39
2021/07/07 08:20:50;;;;;;;;;;;;;;;40.01;20.41;99550.88;5103025;28;19920;-38
2021/07/07 08:23:16;;;;;;;;;;;;;;;40.18;20.33;99553.94;5111860;28;19912;-39
2021/07/07 08:25:41;;;;;;;;;;;;;;;39.67;20.71;99548.66;5112089;28;20018;-39
2021/07/07 08:28:06;;;;;;;;;;;;;;;39.61;20.03;99555.06;5112122;28;19915;-39
2021/07/07 08:30:31;;;;;;;;;;;;;;;39.61;20.98;99555.06;5111955;28;19934;-38
2021/07/07 08:32:57;;;;;;;;;;;;;;;38.69;21.53;99557.66;5111789;28;19912;-39
2021/07/07 08:35:22;;;;;;;;;;;;;;;38.16;22.31;99564.00;5112467;28;19912;-38
2021/07/07 08:37:47;;;;;;;;;;;;;;;38.53;22.23;99558.88;5093406;28;19923;-37
2021/07/07 08:40:13;;;;;;;;;;;;;;;39.04;21.18;99556.06;5111941;28;19933;-38
2021/07/07 08:42:39;;;;;;;;;;;;;;;39.04;21.71;99556.06;5112017;28;20344;-38
2021/07/07 08:45:07;;;;;;;;;;;;;;;38.21;22.13;99560.81;5111324;28;19916;-39
2021/07/07 08:47:33;;;;;;;;;;;;;;;38.66;22.59;99559.25;5111770;28;19911;-39
2021/07/07 08:49:58;;;;;;;;;;;;;;;39.01;22.00;99557.63;5111677;28;20006;-38
2021/07/07 08:52:23;;;;;;;;;;;;;;;39.22;21.08;99556.00;5093483;28;19918;-40
2021/07/07 08:54:49;;;;;;;;;;;;;;;40.62;20.45;99563.56;5111872;28;19919;-40
2021/07/07 08:57:14;;;;;;;;;;;;;;;39.78;20.77;99561.75;5111640;28;19916;-39
2021/07/07 08:59:39;;;;;;;;;;;;;;;39.56;21.57;99561.06;5111690;28;19928;-39
2021/07/07 09:02:08;;;;;;;;;;;;;;;39.47;21.22;99567.03;5111471;28;19994;-39
2021/07/07 09:04:43;;;;;;;;;;;;;;;39.44;21.71;99563.09;5110963;28;20026;-39
2021/07/07 09:07:18;;;;;;;;;;;;;;;39.99;20.54;99564.41;5111232;28;19912;-44
2021/07/07 09:09:44;;;;;;;;;;;;;;;39.43;21.07;99560.69;5111313;28;19919;-42
2021/07/07 09:12:14;;;;;;;;;;;;;;;38.88;22.26;99565.59;5111708;28;19988;-38
2021/07/07 09:14:39;;;;;;;;;;;;;;;38.47;22.39;99559.66;5111104;28;19911;-39
2021/07/07 09:17:09;;;;;;;;;;;;;;;38.64;21.63;99571.97;5111132;28;19916;-40
2021/07/07 09:19:37;;;;;;;;;;;;;;;38.65;21.97;99560.47;5110985;28;19932;-39
2021/07/07 09:22:08;;;;;;;;;;;;;;;38.04;22.06;99571.50;5111207;28;20248;-39
2021/07/07 09:24:34;;;;;;;;;;;;;;;37.78;22.85;99569.06;5092659;28;19950;-39
2021/07/07 09:27:00;;;;;;;;;;;;;;;37.68;22.63;99557.53;5110947;28;19943;-38
2021/07/07 09:29:31;;;;;;;;;;;;;;;37.81;22.86;99565.50;5111274;28;19912;-38
2021/07/07 09:31:56;;;;;;;;;;;;;;;37.98;22.79;99563.94;5111369;28;19918;-39
2021/07/07 09:34:24;;;;;;;;;;;;;;;38.74;22.07;99557.28;5111347;28;20294;-39
2021/07/07 09:36:54;;;;;;;;;;;;;;;38.01;22.30;99550.06;5111045;28;20314;-39
2021/07/07 09:39:20;;;;;;;;;;;;;;;37.78;22.90;99567.09;5110998;28;20002;-39
2021/07/07 09:41:48;;;;;;;;;;;;;;;38.37;21.91;99563.25;5111306;28;20007;-43
2021/07/07 09:44:13;;;;;;;;;;;;;;;38.46;22.43;99563.59;5111218;28;19912;-39
2021/07/07 09:46:38;;;;;;;;;;;;;;;38.78;21.33;99560.03;5111242;28;19935;-39
2021/07/07 09:49:04;;;;;;;;;;;;;;;38.80;21.26;99554.88;5110947;28;19964;-39
2021/07/07 09:51:32;;;;;;;;;;;;;;;38.28;21.88;99555.28;5111038;28;19943;-37
2021/07/07 09:53:57;;;;;;;;;;;;;;;38.31;22.83;99557.28;5111674;28;20268;-39
2021/07/07 09:56:23;;;;;;;;;;;;;;;38.63;23.01;99556.50;5113560;28;20375;-39
2021/07/07 09:58:48;;;;;;;;;;;;;;;38.94;22.30;99552.09;5114833;28;20276;-39
2021/07/07 10:01:13;;;;;;;;;;;;;;;39.95;21.21;99554.50;5115161;28;20009;-38
2021/07/07 10:03:38;;;;;;;;;;;;;;;39.21;21.78;99549.63;5114791;28;19916;-38
2021/07/07 10:06:04;;;;;;;;;;;;;;;37.92;22.86;99555.22;5113923;28;19918;-39
2021/07/07 10:08:29;;;;;;;;;;;;;;;37.64;23.96;99556.75;5113425;28;19918;-39
2021/07/07 10:10:55;;;;;;;;;;;;;;;37.44;24.43;99559.00;5114929;28;19912;-39
2021/07/07 10:13:20;;;;;;;;;;;;;;;37.87;23.92;99545.28;5114783;28;20428;-39
2021/07/07 10:15:46;;;;;;;;;;;;;;;37.84;23.26;99551.63;5113410;28;19959;-39
2021/07/07 10:18:12;;;;;;;;;;;;;;;37.91;23.26;99551.66;5113075;28;19973;-38
2021/07/07 10:20:37;;;;;;;;;;;;;;;37.57;24.26;99553.91;5114201;28;19967;-39
2021/07/07 10:23:03;;;;;;;;;;;;;;;38.26;23.99;99549.34;5096390;28;19923;-39
2021/07/07 10:25:29;;;;;;;;;;;;;;;38.40;23.81;99548.53;5114610;28;19969;-39
2021/07/07 10:27:54;;;;;;;;;;;;;;;38.18;23.72;99556.88;5114161;28;20037;-39
2021/07/07 10:30:20;;;;;;;;;;;;;;;37.30;25.42;99556.16;5114350;28;19912;-39
2021/07/07 10:33:05;;;;;;;;;;;;;;;36.74;25.77;99560.94;5114584;28;19923;-39
2021/07/07 10:35:30;;;;;;;;;;;;;;;36.56;26.27;99561.59;5114163;28;19912;-39
2021/07/07 10:37:56;;;;;;;;;;;;;;;36.56;25.70;99556.06;5114179;28;20279;-39
2021/07/07 10:40:22;;;;;;;;;;;;;;;37.20;25.10;99562.44;5096096;28;19912;-39
2021/07/07 10:42:47;;;;;;;;;;;;;;;37.19;24.58;99553.34;5114417;28;19927;-38
2021/07/07 10:45:28;;;;;;;;;;;;;;;36.40;26.43;99561.88;5114096;28;20361;-39
2021/07/07 10:47:54;;;;;;;;;;;;;;;36.17;25.70;99561.25;5113944;28;19950;-39
2021/07/07 10:50:32;;;;;;;;;;;;;;;36.48;25.30;99571.03;5095479;28;19939;-40
2021/07/07 10:52:57;;;;;;;;;;;;;;;36.99;25.08;99566.66;5113928;28;19998;-39
2021/07/07 10:55:24;;;;;;;;;;;;;;;36.54;25.25;99549.31;5113774;28;19980;-40
2021/07/07 10:57:50;;;;;;;;;;;;;;;36.43;25.32;99557.53;5113873;28;19992;-39
2021/07/07 11:00:21;;;;;;;;;;;;;;;36.32;24.72;99560.19;5113681;28;20391;-39
2021/07/07 11:02:47;;;;;;;;;;;;;;;36.49;23.62;99555.19;5114019;28;19919;-39
2021/07/07 11:05:22;;;;;;;;;;;;;;;36.86;22.86;99545.97;5095571;28;20025;-38
2021/07/07 11:07:48;;;;;;;;;;;;;;;37.10;23.19;99555.63;5112410;28;19955;-38
2021/07/07 11:10:15;;;;;;;;;;;;;;;36.76;23.99;99559.38;5113553;28;19965;-39
2021/07/07 11:12:41;;;;;;;;;;;;;;;36.57;24.08;99557.63;5113768;28;19912;-39
2021/07/07 11:15:06;;;;;;;;;;;;;;;36.40;24.87;99553.56;5113712;28;19923;-39
2021/07/07 11:17:38;;;;;;;;;;;;;;;36.63;24.84;99546.19;5113500;28;20403;-38
2021/07/07 11:20:04;;;;;;;;;;;;;;;37.19;24.84;99550.56;5113100;28;19920;-39
2021/07/07 11:22:29;;;;;;;;;;;;;;;37.59;23.15;99543.19;5113335;28;19912;-39
2021/07/07 11:24:55;;;;;;;;;;;;;;;37.85;24.01;99552.41;5113423;28;19919;-38
2021/07/07 11:27:20;;;;;;;;;;;;;;;37.61;23.88;99557.50;5113242;28;19911;-38
2021/07/07 11:29:46;;;;;;;;;;;;;;;37.34;24.01;99549.44;5113443;28;19912;-37
2021/07/07 11:32:30;;;;;;;;;;;;;;;37.23;24.21;99543.06;5113364;28;19912;-39
2021/07/07 11:34:56;;;;;;;;;;;;;;;37.04;23.83;99541.34;5113306;28;19912;-39
2021/07/07 11:37:22;;;;;;;;;;;;;;;37.20;23.43;99537.50;5113131;28;19911;-39
2021/07/07 11:40:02;;;;;;;;;;;;;;;37.55;23.40;99531.31;5112896;28;19915;-38
2021/07/07 11:42:27;;;;;;;;;;;;;;;37.47;23.86;99535.22;5113161;28;20069;-39
2021/07/07 11:44:53;;;;;;;;;;;;;;;37.40;23.97;99527.69;5113231;28;19962;-39
2021/07/07 11:47:25;;;;;;;;;;;;;;;37.66;23.60;99534.94;5112647;28;20387;-39
2021/07/07 11:50:10;;;;;;;;;;;;;;;37.40;24.24;99538.00;5112780;28;19918;-38
2021/07/07 11:53:11;;;;;;;;;;;;;;;37.19;24.44;99530.38;5113083;28;19912;-38
2021/07/07 11:55:45;;;;;;;;;;;;;;;37.49;23.70;99536.44;5029789;28;20036;-39
2021/07/07 11:58:10;;;;;;;;;;;;;;;37.87;23.57;99528.63;5100052;28;19926;-39
2021/07/07 12:00:37;;;;;;;;;;;;;;;38.36;23.32;99522.75;5113019;28;19915;-39
2021/07/07 12:03:02;;;;;;;;;;;;;;;37.90;23.99;99527.03;5112626;28;20272;-39
2021/07/07 12:05:27;;;;;;;;;;;;;;;37.80;23.80;99525.84;5112521;28;19968;-40
2021/07/07 12:08:09;;;;;;;;;;;;;;;37.61;23.62;99528.97;5094285;28;20306;-39
2021/07/07 12:10:34;;;;;;;;;;;;;;;38.15;23.35;99513.22;5094391;28;19918;-37
2021/07/07 12:13:15;;;;;;;;;;;;;;;38.43;22.57;99523.53;5112754;28;19999;-39
2021/07/07 12:15:40;;;;;;;;;;;;;;;37.67;24.40;99528.19;5094179;28;19919;-38
2021/07/07 12:18:05;;;;;;;;;;;;;;;37.26;24.91;99513.75;5112376;28;19976;-39
2021/07/07 12:20:33;;;;;;;;;;;;;;;37.08;25.72;99511.66;5103278;28;20380;-39
2021/07/07 12:23:02;;;;;;;;;;;;;;;36.98;26.59;99509.63;5092195;28;19912;-38
2021/07/07 12:25:27;;;;;;;;;;;;;;;36.89;26.41;99517.50;5091754;28;20345;-39
2021/07/07 12:27:53;;;;;;;;;;;;;;;36.58;26.79;99525.97;5092140;28;20010;-39
2021/07/07 12:30:18;;;;;;;;;;;;;;;36.72;26.32;99510.66;5091789;28;19954;-38
2021/07/07 12:32:43;;;;;;;;;;;;;;;36.94;26.38;99504.06;5073400;28;20057;-38
2021/07/07 12:35:09;;;;;;;;;;;;;;;36.79;26.22;99508.72;5073365;28;19915;-38
2021/07/07 12:37:35;;;;;;;;;;;;;;;37.13;26.14;99508.53;5072781;28;20364;-39
2021/07/07 12:40:03;;;;;;;;;;;;;;;37.63;25.68;99527.38;5073721;28;19919;-39
2021/07/07 12:42:35;;;;;;;;;;;;;;;36.78;26.58;99512.69;5091718;28;19912;-39